Time;durP1;ratioP1;P1;durP2;ratioP2;P2;SDS_P1;SDS_P2;PMS_P1;PMS_P2;Temp;Humidity;BMP_temperature;BMP_pressure;BME280_temperature;BME280_humidity;BME280_pressure;Samples;Min_cycle;Max_cycle;Signal;HPM_P1;HPM_P2
2021/07/14 00:02:04;;;;;;;105.32;46.00;;;;;;;;;;4979277;28;20478;-67
2021/07/14 00:04:30;;;;;;;104.60;44.40;;;;;;;;;;4975165;28;20056;-67
2021/07/14 00:06:56;;;;;;;104.75;45.33;;;;;;;;;;4980933;28;20047;-67
2021/07/14 00:09:22;;;;;;;109.03;44.65;;;;;;;;;;4981437;28;20080;-67
2021/07/14 00:12:08;;;;;;;99.15;42.83;;;;;;;;;;4976372;28;20715;-67
2021/07/14 00:17:36;;;;;;;101.10;44.60;;;;;;;;;;4985690;28;20048;-67
2021/07/14 00:23:03;;;;;;;101.03;44.05;;;;;;;;;;4943770;29;20035;-67
2021/07/14 00:25:29;;;;;;;103.32;43.97;;;;;;;;;;4974110;28;20187;-67
2021/07/14 00:27:55;;;;;;;115.38;47.70;;;;;;;;;;4979606;28;20114;-67
2021/07/14 00:30:26;;;;;;;106.18;45.65;;;;;;;;;;4975301;28;20118;-67
2021/07/14 00:32:52;;;;;;;116.07;47.33;;;;;;;;;;4971902;28;20027;-67
2021/07/14 00:35:18;;;;;;;111.75;46.60;;;;;;;;;;4976953;28;20042;-67
2021/07/14 00:37:44;;;;;;;110.20;44.05;;;;;;;;;;4972416;28;20161;-67
2021/07/14 00:40:11;;;;;;;118.22;47.47;;;;;;;;;;4974308;28;20065;-67
2021/07/14 00:42:37;;;;;;;117.63;46.65;;;;;;;;;;4974356;28;20022;-67
2021/07/14 00:45:04;;;;;;;120.95;47.72;;;;;;;;;;4972492;28;20034;-67
2021/07/14 00:47:32;;;;;;;109.03;46.00;;;;;;;;;;4973943;28;20030;-67
2021/07/14 00:49:59;;;;;;;112.43;47.53;;;;;;;;;;4970344;28;20065;-67
2021/07/14 00:52:25;;;;;;;110.28;45.10;;;;;;;;;;4974494;28;20022;-67
2021/07/14 00:54:51;;;;;;;114.18;46.35;;;;;;;;;;4973836;28;20035;-67
2021/07/14 00:57:19;;;;;;;114.40;46.03;;;;;;;;;;4973940;28;20104;-68
2021/07/14 00:59:45;;;;;;;116.93;48.22;;;;;;;;;;4971747;28;20042;-67
2021/07/14 01:02:12;;;;;;;108.78;45.75;;;;;;;;;;4974593;28;20107;-69
2021/07/14 01:04:39;;;;;;;122.15;47.13;;;;;;;;;;4975326;28;20043;-67
2021/07/14 01:07:11;;;;;;;105.45;44.22;;;;;;;;;;4971558;28;20046;-68
2021/07/14 01:09:46;;;;;;;114.43;45.92;;;;;;;;;;4973001;28;20039;-68
2021/07/14 01:12:14;;;;;;;113.70;47.70;;;;;;;;;;4970222;28;20081;-67
2021/07/14 01:15:04;;;;;;;121.82;48.47;;;;;;;;;;4984985;28;20502;-68
2021/07/14 01:17:31;;;;;;;115.60;48.28;;;;;;;;;;4979857;28;20092;-68
2021/07/14 01:20:05;;;;;;;116.07;46.25;;;;;;;;;;4984444;28;20030;-67
2021/07/14 01:22:31;;;;;;;111.95;45.40;;;;;;;;;;4984099;28;20026;-67
2021/07/14 01:25:05;;;;;;;116.22;47.30;;;;;;;;;;4981493;28;20064;-67
2021/07/14 01:27:34;;;;;;;117.53;47.72;;;;;;;;;;4981253;28;20098;-67
2021/07/14 01:30:00;;;;;;;116.05;46.30;;;;;;;;;;4982710;28;20029;-67
2021/07/14 01:32:28;;;;;;;119.07;45.05;;;;;;;;;;4986104;28;20347;-67
2021/07/14 01:34:59;;;;;;;107.93;44.35;;;;;;;;;;4983254;28;20034;-67
2021/07/14 01:37:26;;;;;;;110.95;46.10;;;;;;;;;;4981219;28;20030;-67
2021/07/14 01:39:55;;;;;;;107.47;44.25;;;;;;;;;;4973378;28;20027;-68
2021/07/14 01:42:24;;;;;;;108.20;44.00;;;;;;;;;;4979740;28;20030;-67
2021/07/14 01:44:51;;;;;;;106.15;43.42;;;;;;;;;;4982281;28;20064;-68
2021/07/14 01:47:18;;;;;;;104.20;42.75;;;;;;;;;;4984907;28;20031;-67
2021/07/14 01:49:44;;;;;;;107.88;45.60;;;;;;;;;;4979294;28;20041;-67
2021/07/14 01:52:13;;;;;;;107.88;44.05;;;;;;;;;;4984161;28;20087;-68
2021/07/14 01:54:40;;;;;;;105.20;44.85;;;;;;;;;;4988671;28;20482;-68
2021/07/14 01:57:07;;;;;;;106.85;43.10;;;;;;;;;;4982274;28;20022;-68
2021/07/14 01:59:33;;;;;;;100.28;41.03;;;;;;;;;;4999545;28;20029;-67
2021/07/14 02:02:02;;;;;;;108.25;44.50;;;;;;;;;;4985613;28;20029;-66
2021/07/14 02:04:32;;;;;;;108.28;44.83;;;;;;;;;;4988164;28;20057;-66
2021/07/14 02:07:00;;;;;;;111.28;44.47;;;;;;;;;;4984324;28;20490;-66
2021/07/14 02:09:26;;;;;;;112.68;45.15;;;;;;;;;;4977769;28;20500;-66
2021/07/14 02:11:54;;;;;;;112.38;45.65;;;;;;;;;;4985621;28;20478;-66
2021/07/14 02:14:24;;;;;;;118.28;44.45;;;;;;;;;;4985830;28;20034;-66
2021/07/14 02:16:52;;;;;;;110.37;44.97;;;;;;;;;;4979245;28;20045;-66
2021/07/14 02:19:19;;;;;;;112.68;42.47;;;;;;;;;;4984246;28;20182;-67
2021/07/14 02:21:45;;;;;;;113.78;46.03;;;;;;;;;;4979557;28;20038;-66
2021/07/14 02:24:12;;;;;;;107.28;43.13;;;;;;;;;;4978028;28;20034;-66
2021/07/14 02:26:40;;;;;;;115.40;45.22;;;;;;;;;;4985777;28;20041;-66
2021/07/14 02:29:06;;;;;;;110.32;40.20;;;;;;;;;;4984248;28;20050;-66
2021/07/14 02:31:32;;;;;;;116.40;43.70;;;;;;;;;;4981905;28;20026;-66
2021/07/14 02:33:59;;;;;;;121.05;45.90;;;;;;;;;;4982553;28;20386;-67
2021/07/14 02:36:26;;;;;;;113.82;44.25;;;;;;;;;;4986077;28;20151;-67
2021/07/14 02:38:54;;;;;;;116.60;43.78;;;;;;;;;;4982636;28;20037;-67
2021/07/14 02:41:29;;;;;;;110.65;42.17;;;;;;;;;;4977918;28;20027;-67
2021/07/14 02:43:58;;;;;;;96.18;38.97;;;;;;;;;;4978412;28;20026;-66
2021/07/14 02:46:26;;;;;;;98.32;38.03;;;;;;;;;;4982416;28;20471;-66
2021/07/14 02:48:54;;;;;;;99.78;38.80;;;;;;;;;;4978825;28;20022;-67
2021/07/14 02:51:20;;;;;;;94.53;38.00;;;;;;;;;;5013856;28;20410;-67
2021/07/14 02:53:48;;;;;;;106.85;41.15;;;;;;;;;;4981073;28;20394;-66
2021/07/14 02:56:18;;;;;;;91.82;38.55;;;;;;;;;;4984462;28;20433;-67
2021/07/14 02:58:45;;;;;;;95.15;37.10;;;;;;;;;;4982755;28;20034;-67
2021/07/14 03:01:14;;;;;;;86.95;37.22;;;;;;;;;;4982785;28;20026;-67
2021/07/14 03:03:40;;;;;;;84.22;35.97;;;;;;;;;;4978132;28;20033;-67
2021/07/14 03:06:06;;;;;;;82.35;35.10;;;;;;;;;;4984104;28;20051;-67
2021/07/14 03:08:33;;;;;;;90.70;37.97;;;;;;;;;;4977875;28;20022;-66
2021/07/14 03:10:59;;;;;;;98.57;36.53;;;;;;;;;;4979239;28;20031;-66
2021/07/14 03:13:27;;;;;;;79.32;30.80;;;;;;;;;;4973185;28;20023;-67
2021/07/14 03:15:54;;;;;;;75.63;34.30;;;;;;;;;;4983585;28;20158;-66
2021/07/14 03:18:21;;;;;;;78.47;32.58;;;;;;;;;;4986712;28;20473;-66
2021/07/14 03:20:48;;;;;;;74.10;29.48;;;;;;;;;;4987578;28;20126;-66
2021/07/14 03:23:15;;;;;;;75.75;34.67;;;;;;;;;;4979880;28;20031;-66
2021/07/14 03:25:45;;;;;;;85.03;34.00;;;;;;;;;;4978030;28;20490;-66
2021/07/14 03:28:11;;;;;;;73.95;30.80;;;;;;;;;;4973797;28;20434;-69
2021/07/14 03:30:37;;;;;;;74.60;32.45;;;;;;;;;;4977918;28;20042;-69
2021/07/14 03:33:04;;;;;;;73.85;32.80;;;;;;;;;;4974095;28;20136;-67
2021/07/14 03:35:30;;;;;;;74.18;33.40;;;;;;;;;;4978937;28;20033;-67
2021/07/14 03:37:57;;;;;;;81.60;33.15;;;;;;;;;;4983664;28;20099;-67
2021/07/14 03:40:23;;;;;;;75.55;33.53;;;;;;;;;;4981509;28;20022;-67
2021/07/14 03:42:52;;;;;;;74.43;31.45;;;;;;;;;;4976944;28;20394;-67
2021/07/14 03:45:18;;;;;;;76.82;32.72;;;;;;;;;;4981822;28;20502;-67
2021/07/14 03:47:45;;;;;;;79.85;33.53;;;;;;;;;;4986948;28;20026;-67
2021/07/14 03:50:12;;;;;;;74.68;31.55;;;;;;;;;;4985235;28;20749;-67
2021/07/14 03:52:38;;;;;;;72.78;30.55;;;;;;;;;;4987980;28;20031;-67
2021/07/14 03:55:05;;;;;;;70.07;29.70;;;;;;;;;;4981391;28;20058;-67
2021/07/14 03:57:32;;;;;;;69.25;29.02;;;;;;;;;;4988925;28;20121;-67
2021/07/14 03:59:58;;;;;;;70.90;31.98;;;;;;;;;;4983796;28;20026;-67
2021/07/14 04:02:25;;;;;;;70.97;30.27;;;;;;;;;;4973327;28;20356;-67
2021/07/14 04:04:52;;;;;;;68.90;30.27;;;;;;;;;;4984965;28;20054;-67
2021/07/14 04:07:20;;;;;;;72.90;31.42;;;;;;;;;;4982438;28;20119;-67
2021/07/14 04:09:47;;;;;;;77.63;30.77;;;;;;;;;;4978361;28;20481;-67
2021/07/14 04:12:14;;;;;;;71.15;30.60;;;;;;;;;;4979621;28;20022;-67
2021/07/14 04:14:40;;;;;;;66.68;27.85;;;;;;;;;;4982878;28;20061;-67
2021/07/14 04:17:06;;;;;;;67.70;29.20;;;;;;;;;;4974944;28;20027;-66
2021/07/14 04:19:33;;;;;;;70.35;31.25;;;;;;;;;;4975695;28;20080;-67
2021/07/14 04:21:59;;;;;;;74.45;30.85;;;;;;;;;;4982027;28;20044;-67
2021/07/14 04:24:25;;;;;;;72.22;30.52;;;;;;;;;;4985277;28;20124;-67
2021/07/14 04:26:51;;;;;;;76.28;30.00;;;;;;;;;;4977968;28;20643;-67
2021/07/14 04:29:18;;;;;;;77.18;33.42;;;;;;;;;;4978123;28;20485;-67
2021/07/14 04:31:44;;;;;;;68.85;29.75;;;;;;;;;;4980307;28;20027;-67
2021/07/14 04:34:10;;;;;;;69.60;29.23;;;;;;;;;;4973922;28;20027;-67
2021/07/14 04:36:37;;;;;;;71.90;30.13;;;;;;;;;;4975509;28;20430;-67
2021/07/14 04:39:04;;;;;;;70.95;27.30;;;;;;;;;;4981288;28;20026;-67
2021/07/14 04:41:30;;;;;;;80.18;29.95;;;;;;;;;;4981964;28;20112;-67
2021/07/14 04:43:59;;;;;;;77.30;30.35;;;;;;;;;;4977932;28;20037;-67
2021/07/14 04:46:25;;;;;;;79.40;30.77;;;;;;;;;;4984522;28;20061;-67
2021/07/14 04:48:52;;;;;;;76.45;30.30;;;;;;;;;;4980387;28;20054;-67
2021/07/14 04:51:18;;;;;;;77.80;30.80;;;;;;;;;;4983932;28;20026;-67
2021/07/14 04:53:44;;;;;;;80.15;33.80;;;;;;;;;;4982232;28;20031;-67
2021/07/14 04:56:12;;;;;;;84.85;33.67;;;;;;;;;;4979874;28;20115;-67
2021/07/14 04:58:38;;;;;;;84.57;34.13;;;;;;;;;;4985148;28;20037;-67
2021/07/14 05:01:04;;;;;;;86.70;33.15;;;;;;;;;;4979382;28;20551;-67
2021/07/14 05:03:30;;;;;;;75.53;32.53;;;;;;;;;;4975960;28;20050;-68
2021/07/14 05:05:56;;;;;;;83.28;34.03;;;;;;;;;;4975691;28;20058;-68
2021/07/14 05:08:22;;;;;;;84.95;32.83;;;;;;;;;;4978976;28;20022;-67
2021/07/14 05:10:48;;;;;;;86.25;34.20;;;;;;;;;;4983291;28;20039;-69
2021/07/14 05:13:16;;;;;;;82.60;32.63;;;;;;;;;;4976375;28;20045;-67
2021/07/14 05:15:44;;;;;;;82.32;33.17;;;;;;;;;;4978129;28;20021;-68
2021/07/14 05:18:10;;;;;;;83.93;30.58;;;;;;;;;;4977934;28;20034;-68
2021/07/14 05:20:36;;;;;;;88.53;31.52;;;;;;;;;;4983972;28;20027;-69
2021/07/14 05:23:02;;;;;;;79.53;30.40;;;;;;;;;;4971429;28;20034;-70
2021/07/14 05:25:28;;;;;;;60.83;22.77;;;;;;;;;;4982785;28;20117;-70
2021/07/14 05:27:54;;;;;;;73.38;28.77;;;;;;;;;;4981232;28;20430;-69
2021/07/14 05:30:20;;;;;;;76.78;30.85;;;;;;;;;;4988121;28;20033;-69
2021/07/14 05:32:46;;;;;;;73.68;31.05;;;;;;;;;;4974021;28;20513;-70
2021/07/14 05:35:13;;;;;;;68.60;27.25;;;;;;;;;;4982423;28;20035;-69
2021/07/14 05:37:39;;;;;;;67.28;27.17;;;;;;;;;;4974816;28;20023;-67
2021/07/14 05:40:05;;;;;;;65.78;27.65;;;;;;;;;;4976923;28;20046;-68
2021/07/14 05:42:31;;;;;;;66.57;27.55;;;;;;;;;;4983222;28;20670;-69
2021/07/14 05:44:57;;;;;;;68.07;28.80;;;;;;;;;;4985150;28;20042;-69
2021/07/14 05:47:24;;;;;;;65.78;27.38;;;;;;;;;;4981675;28;20071;-68
2021/07/14 05:49:50;;;;;;;67.63;29.55;;;;;;;;;;4983392;28;20022;-69
2021/07/14 05:52:16;;;;;;;64.22;27.95;;;;;;;;;;4984083;28;20364;-69
2021/07/14 05:54:42;;;;;;;59.90;23.90;;;;;;;;;;4983660;28;20092;-69
2021/07/14 05:57:08;;;;;;;70.25;28.95;;;;;;;;;;4985846;28;20023;-69
2021/07/14 05:59:34;;;;;;;67.53;27.80;;;;;;;;;;4981963;28;20034;-69
2021/07/14 06:02:00;;;;;;;72.22;29.20;;;;;;;;;;4976865;28;20031;-69
2021/07/14 06:04:26;;;;;;;74.45;28.70;;;;;;;;;;4980736;28;20061;-69
2021/07/14 06:06:52;;;;;;;64.63;27.42;;;;;;;;;;4981169;28;20042;-69
2021/07/14 06:09:18;;;;;;;69.43;28.73;;;;;;;;;;4983911;28;20633;-69
2021/07/14 06:11:44;;;;;;;60.50;24.95;;;;;;;;;;4985422;28;20028;-69
2021/07/14 06:14:10;;;;;;;65.57;28.70;;;;;;;;;;4985154;28;20459;-68
2021/07/14 06:16:36;;;;;;;67.43;27.58;;;;;;;;;;4984063;28;20027;-69
2021/07/14 06:19:02;;;;;;;69.25;28.75;;;;;;;;;;4980230;28;20380;-69
2021/07/14 06:21:28;;;;;;;66.47;27.73;;;;;;;;;;4983035;28;20517;-69
2021/07/14 06:23:54;;;;;;;67.80;27.45;;;;;;;;;;4986809;28;20117;-69
2021/07/14 06:26:20;;;;;;;59.92;22.77;;;;;;;;;;4982439;28;20031;-69
2021/07/14 06:28:46;;;;;;;57.47;24.75;;;;;;;;;;4984921;28;20107;-67
2021/07/14 06:31:12;;;;;;;57.38;26.25;;;;;;;;;;4978493;28;20502;-67
2021/07/14 06:33:40;;;;;;;61.47;25.25;;;;;;;;;;4977127;28;20031;-67
2021/07/14 06:36:06;;;;;;;60.53;24.75;;;;;;;;;;4982265;28;20031;-67
2021/07/14 06:38:33;;;;;;;60.17;24.98;;;;;;;;;;4984208;28;20093;-67
2021/07/14 06:40:59;;;;;;;57.53;24.33;;;;;;;;;;4983683;28;20459;-68
2021/07/14 06:43:49;;;;;;;56.92;23.40;;;;;;;;;;4980227;28;20076;-68
2021/07/14 06:46:16;;;;;;;52.03;23.70;;;;;;;;;;4977295;28;20108;-68
2021/07/14 06:48:43;;;;;;;58.67;25.15;;;;;;;;;;4976393;28;20114;-68
2021/07/14 06:51:09;;;;;;;58.20;24.38;;;;;;;;;;4974955;28;20059;-68
2021/07/14 06:53:36;;;;;;;56.55;24.83;;;;;;;;;;4979743;28;20030;-68
2021/07/14 06:56:02;;;;;;;66.05;24.83;;;;;;;;;;4977220;28;20038;-68
2021/07/14 06:58:29;;;;;;;59.70;25.67;;;;;;;;;;4980961;28;20031;-68
2021/07/14 07:00:55;;;;;;;65.30;25.40;;;;;;;;;;4976668;28;20030;-68
2021/07/14 07:03:21;;;;;;;62.42;27.67;;;;;;;;;;4976390;28;20027;-68
2021/07/14 07:05:48;;;;;;;61.00;25.35;;;;;;;;;;4975581;28;20490;-68
2021/07/14 07:08:14;;;;;;;62.55;25.95;;;;;;;;;;4972852;28;20031;-68
2021/07/14 07:10:41;;;;;;;64.65;26.80;;;;;;;;;;4972619;28;20525;-68
2021/07/14 07:13:07;;;;;;;68.30;27.65;;;;;;;;;;4980952;28;20050;-68
2021/07/14 07:15:33;;;;;;;70.53;26.98;;;;;;;;;;4975193;28;20034;-68
2021/07/14 07:17:59;;;;;;;67.57;26.60;;;;;;;;;;4981158;28;20019;-68
2021/07/14 07:20:25;;;;;;;67.75;28.80;;;;;;;;;;4972991;28;20109;-68
2021/07/14 07:22:51;;;;;;;69.57;27.15;;;;;;;;;;4990205;28;20103;-68
2021/07/14 07:25:18;;;;;;;69.03;27.45;;;;;;;;;;4985861;28;20121;-68
2021/07/14 07:27:45;;;;;;;78.38;28.88;;;;;;;;;;4987222;28;20025;-68
2021/07/14 07:30:12;;;;;;;78.95;30.17;;;;;;;;;;4979132;28;20417;-68
2021/07/14 07:32:38;;;;;;;85.28;32.17;;;;;;;;;;4983978;28;20039;-68
2021/07/14 07:35:05;;;;;;;76.80;28.83;;;;;;;;;;4981618;28;20035;-68
2021/07/14 07:37:31;;;;;;;82.13;29.85;;;;;;;;;;4972536;28;20058;-68
2021/07/14 07:39:57;;;;;;;72.80;27.98;;;;;;;;;;4980646;28;20426;-68
2021/07/14 07:42:24;;;;;;;85.18;30.48;;;;;;;;;;4974937;28;20022;-68
2021/07/14 07:44:50;;;;;;;91.93;31.40;;;;;;;;;;4977322;28;20050;-68
2021/07/14 07:47:17;;;;;;;87.30;31.90;;;;;;;;;;4985034;28;20023;-68
2021/07/14 07:49:45;;;;;;;84.88;31.17;;;;;;;;;;4984265;28;20136;-68
2021/07/14 07:52:12;;;;;;;98.25;32.95;;;;;;;;;;4980845;28;20027;-68
2021/07/14 07:54:38;;;;;;;93.40;31.88;;;;;;;;;;4981352;28;20062;-68
2021/07/14 07:57:04;;;;;;;90.30;31.10;;;;;;;;;;4981137;28;20098;-68
2021/07/14 07:59:30;;;;;;;92.13;31.58;;;;;;;;;;4982275;28;20039;-68
2021/07/14 08:01:56;;;;;;;86.38;27.05;;;;;;;;;;4980253;28;20500;-68
2021/07/14 08:04:22;;;;;;;97.53;33.60;;;;;;;;;;4978078;28;20038;-68
2021/07/14 08:06:48;;;;;;;91.53;30.48;;;;;;;;;;4965402;28;20065;-68
2021/07/14 08:09:14;;;;;;;90.93;30.60;;;;;;;;;;4979715;28;20027;-68
2021/07/14 08:11:40;;;;;;;88.90;30.08;;;;;;;;;;4984630;28;20386;-68
2021/07/14 08:14:06;;;;;;;84.85;28.27;;;;;;;;;;4979595;28;20026;-68
2021/07/14 08:16:32;;;;;;;94.50;31.77;;;;;;;;;;4976581;28;20027;-68
2021/07/14 08:18:59;;;;;;;103.65;33.47;;;;;;;;;;4989614;28;20031;-68
2021/07/14 08:21:25;;;;;;;91.82;31.33;;;;;;;;;;4970081;28;20031;-68
2021/07/14 08:23:51;;;;;;;93.80;30.25;;;;;;;;;;4973535;28;20027;-68
2021/07/14 08:26:17;;;;;;;90.88;28.75;;;;;;;;;;4982285;28;20113;-68
2021/07/14 08:28:43;;;;;;;89.80;30.55;;;;;;;;;;4984564;28;20058;-68
2021/07/14 08:31:10;;;;;;;82.85;27.90;;;;;;;;;;4981705;28;20027;-68
2021/07/14 08:33:37;;;;;;;90.10;32.30;;;;;;;;;;4983225;28;20034;-68
2021/07/14 08:36:03;;;;;;;83.57;28.55;;;;;;;;;;4979442;28;20031;-68
2021/07/14 08:38:29;;;;;;;94.97;29.98;;;;;;;;;;4983542;28;20038;-68
2021/07/14 08:40:56;;;;;;;95.78;31.30;;;;;;;;;;4984917;28;20463;-68
2021/07/14 08:43:27;;;;;;;96.80;28.55;;;;;;;;;;4984007;28;20098;-68
2021/07/14 08:45:53;;;;;;;110.60;32.35;;;;;;;;;;4980962;28;20030;-68
2021/07/14 08:48:19;;;;;;;119.75;34.60;;;;;;;;;;4977877;28;20052;-68
2021/07/14 08:50:45;;;;;;;106.07;32.58;;;;;;;;;;4984290;28;20023;-68
2021/07/14 08:53:16;;;;;;;98.47;31.25;;;;;;;;;;4972258;28;20031;-68
2021/07/14 08:55:43;;;;;;;92.47;30.08;;;;;;;;;;4981329;28;20101;-68
2021/07/14 08:58:11;;;;;;;101.40;29.85;;;;;;;;;;4991900;28;20076;-68
2021/07/14 09:00:38;;;;;;;112.47;31.50;;;;;;;;;;4980901;28;20025;-68
2021/07/14 09:03:04;;;;;;;113.18;32.42;;;;;;;;;;4975074;28;20389;-68
2021/07/14 09:05:30;;;;;;;134.35;34.03;;;;;;;;;;4984889;28;20081;-68
2021/07/14 09:07:56;;;;;;;122.45;35.58;;;;;;;;;;4983268;28;20074;-68
2021/07/14 09:10:23;;;;;;;123.18;36.00;;;;;;;;;;4981757;28;20033;-68
2021/07/14 09:12:50;;;;;;;122.63;37.15;;;;;;;;;;4988358;28;20079;-68
2021/07/14 09:15:21;;;;;;;115.68;33.22;;;;;;;;;;4976356;28;20031;-68
2021/07/14 09:17:50;;;;;;;110.53;32.85;;;;;;;;;;4977073;28;20034;-68
2021/07/14 09:20:22;;;;;;;99.65;30.42;;;;;;;;;;4977310;28;20180;-68
2021/07/14 09:22:49;;;;;;;105.28;32.42;;;;;;;;;;4972257;28;20026;-68
2021/07/14 09:25:16;;;;;;;100.82;30.23;;;;;;;;;;4984088;28;20038;-68
2021/07/14 09:28:03;;;;;;;107.85;31.55;;;;;;;;;;4983971;28;20045;-68
2021/07/14 09:30:31;;;;;;;81.20;27.55;;;;;;;;;;4982722;28;20018;-68
2021/07/14 09:33:03;;;;;;;85.70;27.73;;;;;;;;;;4987267;28;20469;-68
2021/07/14 09:35:45;;;;;;;80.88;27.10;;;;;;;;;;4984746;28;20038;-67
2021/07/14 09:38:17;;;;;;;83.95;27.63;;;;;;;;;;4980993;28;20486;-68
2021/07/14 09:40:49;;;;;;;83.47;27.83;;;;;;;;;;4985649;28;20029;-67
2021/07/14 09:43:18;;;;;;;86.25;29.42;;;;;;;;;;4979914;28;20384;-68
2021/07/14 09:45:45;;;;;;;75.53;27.13;;;;;;;;;;4973975;28;20034;-68
2021/07/14 09:48:13;;;;;;;78.35;26.10;;;;;;;;;;4982916;28;20027;-68
2021/07/14 09:50:48;;;;;;;77.18;27.13;;;;;;;;;;4985946;28;20394;-68
2021/07/14 09:53:19;;;;;;;65.18;23.85;;;;;;;;;;4979315;28;20482;-68
2021/07/14 09:55:46;;;;;;;75.43;26.50;;;;;;;;;;4984624;28;20027;-68
2021/07/14 09:58:16;;;;;;;74.32;25.25;;;;;;;;;;4990564;28;20091;-68
2021/07/14 10:00:50;;;;;;;82.57;26.88;;;;;;;;;;4982944;28;20110;-68
2021/07/14 10:03:23;;;;;;;86.53;27.52;;;;;;;;;;4975655;28;20034;-68
2021/07/14 10:05:49;;;;;;;84.65;28.85;;;;;;;;;;4978220;28;20082;-68
2021/07/14 10:08:20;;;;;;;90.90;29.27;;;;;;;;;;4981659;28;20029;-68
2021/07/14 10:10:47;;;;;;;83.45;28.65;;;;;;;;;;4984782;28;20114;-68
2021/07/14 10:13:13;;;;;;;80.32;28.85;;;;;;;;;;4984468;28;20034;-68
2021/07/14 10:15:39;;;;;;;87.43;29.60;;;;;;;;;;4988509;28;20030;-68
2021/07/14 10:18:09;;;;;;;92.57;31.90;;;;;;;;;;4974862;28;20185;-68
2021/07/14 10:20:37;;;;;;;;;;;;;;;;;;4982891;28;20011;-68
2021/07/14 10:23:10;;;;;;;86.68;30.20;;;;;;;;;;4972872;28;20296;-68
2021/07/14 10:25:37;;;;;;;94.38;31.70;;;;;;;;;;4980350;28;20101;-68
2021/07/14 10:28:04;;;;;;;98.70;32.97;;;;;;;;;;4983020;28;20049;-68
2021/07/14 10:30:30;;;;;;;89.80;29.90;;;;;;;;;;4972734;28;20015;-68
2021/07/14 10:32:57;;;;;;;90.13;32.63;;;;;;;;;;4982655;28;20486;-68
2021/07/14 10:35:24;;;;;;;87.25;32.45;;;;;;;;;;4983838;28;20037;-68
2021/07/14 10:37:52;;;;;;;93.70;32.20;;;;;;;;;;4980518;28;20027;-68
2021/07/14 10:40:19;;;;;;;94.88;31.17;;;;;;;;;;4979763;28;20027;-68
2021/07/14 10:42:46;;;;;;;95.55;32.33;;;;;;;;;;4983958;28;20015;-68
2021/07/14 10:45:12;;;;;;;88.50;32.20;;;;;;;;;;5002930;28;20035;-68
2021/07/14 10:47:39;;;;;;;82.78;31.40;;;;;;;;;;4971286;28;20030;-68
2021/07/14 10:50:05;;;;;;;91.53;30.90;;;;;;;;;;4975110;28;20035;-68
2021/07/14 10:52:32;;;;;;;81.93;30.13;;;;;;;;;;4979727;28;20050;-68
2021/07/14 10:54:58;;;;;;;78.93;29.40;;;;;;;;;;4980595;28;20033;-68
2021/07/14 10:57:24;;;;;;;74.05;26.67;;;;;;;;;;4981904;28;20537;-68
2021/07/14 10:59:51;;;;;;;77.35;29.70;;;;;;;;;;4976918;28;20432;-68
2021/07/14 11:02:17;;;;;;;75.75;29.58;;;;;;;;;;4980418;28;20672;-68
2021/07/14 11:04:43;;;;;;;73.03;27.92;;;;;;;;;;4976235;28;20092;-68
2021/07/14 11:07:09;;;;;;;84.82;30.23;;;;;;;;;;4973799;28;20042;-68
2021/07/14 11:09:37;;;;;;;81.45;29.65;;;;;;;;;;4985741;28;20022;-68
2021/07/14 11:12:05;;;;;;;76.05;29.38;;;;;;;;;;4981311;28;20474;-68
2021/07/14 11:14:35;;;;;;;80.65;30.50;;;;;;;;;;4972394;28;20430;-68
2021/07/14 11:17:02;;;;;;;75.97;31.02;;;;;;;;;;4978439;28;20054;-68
2021/07/14 11:19:46;;;;;;;73.57;28.02;;;;;;;;;;4976551;28;20033;-68
2021/07/14 11:22:14;;;;;;;65.38;22.90;;;;;;;;;;4983392;28;20095;-68
2021/07/14 11:24:45;;;;;;;74.07;27.77;;;;;;;;;;4983763;28;20034;-68
2021/07/14 11:27:23;;;;;;;74.40;28.63;;;;;;;;;;4980206;28;20034;-68
2021/07/14 11:29:50;;;;;;;82.22;30.25;;;;;;;;;;4980610;28;20027;-68
2021/07/14 11:32:35;;;;;;;77.57;30.02;;;;;;;;;;4980112;28;20027;-68
2021/07/14 11:35:01;;;;;;;83.40;31.58;;;;;;;;;;4986239;28;20064;-68
2021/07/14 11:37:31;;;;;;;85.65;31.30;;;;;;;;;;4975872;28;20062;-67
2021/07/14 11:40:17;;;;;;;80.60;32.25;;;;;;;;;;4978640;28;20176;-67
2021/07/14 11:42:50;;;;;;;75.72;31.20;;;;;;;;;;4982506;28;20035;-68
2021/07/14 11:45:16;;;;;;;72.38;31.20;;;;;;;;;;4980611;28;20394;-68
2021/07/14 11:47:42;;;;;;;74.50;30.13;;;;;;;;;;4978411;28;20072;-68
2021/07/14 11:50:10;;;;;;;78.60;30.23;;;;;;;;;;4975528;28;20115;-68
2021/07/14 11:52:54;;;;;;;73.40;29.65;;;;;;;;;;4976423;28;20030;-68
2021/07/14 11:55:23;;;;;;;77.88;31.50;;;;;;;;;;4974871;28;20466;-68
2021/07/14 11:57:53;;;;;;;73.97;32.20;;;;;;;;;;4973794;28;20035;-68
2021/07/14 12:00:35;;;;;;;76.55;32.70;;;;;;;;;;4978727;28;20030;-68
2021/07/14 12:03:02;;;;;;;71.10;30.83;;;;;;;;;;4983111;28;20062;-67
2021/07/14 12:05:31;;;;;;;80.22;35.70;;;;;;;;;;4978142;28;20047;-68
2021/07/14 12:08:10;;;;;;;74.80;32.40;;;;;;;;;;4977262;28;20018;-67
2021/07/14 12:10:36;;;;;;;84.57;35.90;;;;;;;;;;4983779;28;20026;-67
2021/07/14 12:13:05;;;;;;;78.57;33.20;;;;;;;;;;4977106;28;20529;-67
2021/07/14 12:15:31;;;;;;;86.40;32.97;;;;;;;;;;4996514;28;20042;-68
2021/07/14 12:18:05;;;;;;;80.88;32.78;;;;;;;;;;4976044;28;20171;-68
2021/07/14 12:20:31;;;;;;;81.65;35.72;;;;;;;;;;4979917;28;20041;-68
2021/07/14 12:22:57;;;;;;;90.25;36.00;;;;;;;;;;4982110;28;20402;-68
2021/07/14 12:25:23;;;;;;;83.90;35.00;;;;;;;;;;4984415;28;20042;-68
2021/07/14 12:27:50;;;;;;;80.22;31.60;;;;;;;;;;4978927;28;20030;-68
2021/07/14 12:30:17;;;;;;;91.78;36.65;;;;;;;;;;4984134;28;20027;-68
2021/07/14 12:32:43;;;;;;;82.72;33.17;;;;;;;;;;4977572;28;20026;-68
2021/07/14 12:35:14;;;;;;;87.60;33.85;;;;;;;;;;4981782;28;20031;-68
2021/07/14 12:37:42;;;;;;;77.53;30.92;;;;;;;;;;4980603;28;20351;-68
2021/07/14 12:40:08;;;;;;;76.93;33.15;;;;;;;;;;4980662;28;20562;-68
2021/07/14 12:42:35;;;;;;;71.63;31.00;;;;;;;;;;4982807;28;20378;-67
2021/07/14 12:45:01;;;;;;;78.20;33.60;;;;;;;;;;4980805;28;20094;-68
2021/07/14 12:47:27;;;;;;;77.50;32.58;;;;;;;;;;4983721;28;20022;-68
2021/07/14 12:49:53;;;;;;;78.40;32.53;;;;;;;;;;4983242;28;20042;-67
2021/07/14 12:52:21;;;;;;;76.72;31.80;;;;;;;;;;4980650;28;20019;-68
2021/07/14 12:54:48;;;;;;;78.57;32.72;;;;;;;;;;4979430;28;20446;-68
2021/07/14 12:57:21;;;;;;;80.53;35.15;;;;;;;;;;4978131;28;20054;-68
2021/07/14 12:59:50;;;;;;;81.68;34.45;;;;;;;;;;4976713;28;20041;-68
2021/07/14 13:02:20;;;;;;;78.07;33.00;;;;;;;;;;4970716;28;20394;-68
2021/07/14 13:04:47;;;;;;;88.40;36.03;;;;;;;;;;4968236;28;20039;-68
2021/07/14 13:07:20;;;;;;;79.35;33.13;;;;;;;;;;4969022;28;20027;-68
2021/07/14 13:09:46;;;;;;;80.75;35.85;;;;;;;;;;4978770;28;20045;-68
2021/07/14 13:12:12;;;;;;;82.85;35.08;;;;;;;;;;4973269;28;20034;-68
2021/07/14 13:14:41;;;;;;;84.63;33.70;;;;;;;;;;4998202;28;20030;-68
2021/07/14 13:17:07;;;;;;;75.78;32.13;;;;;;;;;;4985285;28;20053;-68
2021/07/14 13:19:33;;;;;;;84.43;35.50;;;;;;;;;;4978906;28;20189;-68
2021/07/14 13:22:00;;;;;;;85.97;35.75;;;;;;;;;;4981840;28;20026;-68
2021/07/14 13:24:30;;;;;;;87.40;36.40;;;;;;;;;;4975802;28;20027;-68
2021/07/14 13:26:57;;;;;;;83.15;36.20;;;;;;;;;;4972507;28;20037;-68
2021/07/14 13:29:31;;;;;;;82.57;37.33;;;;;;;;;;4981426;28;20516;-68
2021/07/14 13:32:16;;;;;;;80.60;35.35;;;;;;;;;;4972557;28;20062;-68
2021/07/14 13:34:43;;;;;;;15.13;5.18;;;;;;;;;;4973784;28;20581;-67
2021/07/14 13:37:09;;;;;;;7.18;2.20;;;;;;;;;;4980844;28;20042;-68
2021/07/14 13:39:38;;;;;;;5.35;1.63;;;;;;;;;;4980958;28;20076;-67
2021/07/14 13:42:13;;;;;;;6.35;1.75;;;;;;;;;;4984139;28;20026;-67
2021/07/14 13:44:41;;;;;;;8.07;3.08;;;;;;;;;;4984986;28;20071;-67
2021/07/14 13:47:10;;;;;;;10.73;3.17;;;;;;;;;;4980234;28;20026;-68
2021/07/14 13:49:36;;;;;;;8.43;3.15;;;;;;;;;;4975308;28;20095;-68
2021/07/14 13:52:03;;;;;;;10.75;3.53;;;;;;;;;;4979076;28;20477;-67
2021/07/14 13:54:33;;;;;;;8.13;2.30;;;;;;;;;;4980620;28;20369;-67
2021/07/14 13:56:59;;;;;;;;;;;;;;;;;;4985281;28;20036;-67
2021/07/14 13:59:31;;;;;;;3.70;1.10;;;;;;;;;;4988903;28;19997;-67
2021/07/14 14:02:03;;;;;;;4.32;1.02;;;;;;;;;;4979458;28;20034;-67
2021/07/14 14:04:30;;;;;;;4.28;1.02;;;;;;;;;;4977167;28;20183;-68
2021/07/14 14:06:58;;;;;;;7.85;1.10;;;;;;;;;;4978266;28;20050;-68
2021/07/14 14:09:24;;;;;;;2.97;0.90;;;;;;;;;;4981978;28;20099;-68
2021/07/14 14:11:50;;;;;;;2.50;0.73;;;;;;;;;;4980078;28;20038;-68
2021/07/14 14:14:17;;;;;;;2.90;1.00;;;;;;;;;;4979714;28;20030;-68
2021/07/14 14:16:44;;;;;;;2.45;0.85;;;;;;;;;;4986809;28;20061;-68
2021/07/14 14:19:14;;;;;;;2.05;0.77;;;;;;;;;;4984479;28;20030;-67
2021/07/14 14:21:40;;;;;;;;;;;;;;;;;;4977563;28;20030;-68
2021/07/14 14:24:11;;;;;;;0.70;0.60;;;;;;;;;;4984825;28;20288;-67
2021/07/14 14:26:37;;;;;;;10.90;0.98;;;;;;;;;;4975927;28;20042;-67